sensor_id;sensor_type;location;lat;lon;timestamp;P1;durP1;ratioP1;P2;durP2;ratioP2
24373;SDS011;12498;50.880;12.096;2022-12-07T00:01:09;20.83;;;11.32;;
24373;SDS011;12498;50.880;12.096;2022-12-07T00:03:37;21.23;;;12.88;;
24373;SDS011;12498;50.880;12.096;2022-12-07T00:06:05;22.08;;;12.68;;
24373;SDS011;12498;50.880;12.096;2022-12-07T00:08:32;20.75;;;11.93;;
24373;SDS011;12498;50.880;12.096;2022-12-07T00:11:09;19.23;;;12.05;;
24373;SDS011;12498;50.880;12.096;2022-12-07T00:13:38;21.48;;;13.15;;
24373;SDS011;12498;50.880;12.096;2022-12-07T00:16:08;29.23;;;14.13;;
24373;SDS011;12498;50.880;12.096;2022-12-07T00:18:35;22.65;;;13.52;;
24373;SDS011;12498;50.880;12.096;2022-12-07T00:21:05;20.83;;;13.52;;
24373;SDS011;12498;50.880;12.096;2022-12-07T00:23:34;24.42;;;14.63;;
24373;SDS011;12498;50.880;12.096;2022-12-07T00:26:09;22.67;;;14.13;;
24373;SDS011;12498;50.880;12.096;2022-12-07T00:28:36;21.75;;;13.63;;
24373;SDS011;12498;50.880;12.096;2022-12-07T00:31:12;22.38;;;13.35;;
24373;SDS011;12498;50.880;12.096;2022-12-07T00:33:39;22.70;;;13.98;;
24373;SDS011;12498;50.880;12.096;2022-12-07T00:36:06;25.30;;;14.05;;
24373;SDS011;12498;50.880;12.096;2022-12-07T00:41:02;24.90;;;13.48;;
24373;SDS011;12498;50.880;12.096;2022-12-07T00:43:29;21.63;;;13.43;;
24373;SDS011;12498;50.880;12.096;2022-12-07T00:45:55;21.88;;;13.50;;
24373;SDS011;12498;50.880;12.096;2022-12-07T00:48:21;22.60;;;13.85;;
24373;SDS011;12498;50.880;12.096;2022-12-07T00:50:47;21.40;;;13.52;;
24373;SDS011;12498;50.880;12.096;2022-12-07T00:53:13;21.60;;;12.85;;
24373;SDS011;12498;50.880;12.096;2022-12-07T00:55:39;22.88;;;13.27;;
24373;SDS011;12498;50.880;12.096;2022-12-07T00:58:05;23.50;;;12.93;;
24373;SDS011;12498;50.880;12.096;2022-12-07T01:00:31;22.65;;;13.68;;
24373;SDS011;12498;50.880;12.096;2022-12-07T01:02:57;20.70;;;12.43;;
24373;SDS011;12498;50.880;12.096;2022-12-07T01:05:23;21.95;;;12.98;;
24373;SDS011;12498;50.880;12.096;2022-12-07T01:07:49;21.77;;;13.18;;
24373;SDS011;12498;50.880;12.096;2022-12-07T01:10:14;26.52;;;12.95;;
24373;SDS011;12498;50.880;12.096;2022-12-07T01:12:40;21.88;;;11.45;;
24373;SDS011;12498;50.880;12.096;2022-12-07T01:15:06;20.90;;;11.70;;
24373;SDS011;12498;50.880;12.096;2022-12-07T01:17:32;19.33;;;11.68;;
24373;SDS011;12498;50.880;12.096;2022-12-07T01:19:59;20.27;;;11.57;;
24373;SDS011;12498;50.880;12.096;2022-12-07T01:22:25;17.77;;;10.75;;
24373;SDS011;12498;50.880;12.096;2022-12-07T01:24:51;16.88;;;9.65;;
24373;SDS011;12498;50.880;12.096;2022-12-07T01:27:17;19.15;;;9.95;;
24373;SDS011;12498;50.880;12.096;2022-12-07T01:29:42;16.35;;;9.95;;
24373;SDS011;12498;50.880;12.096;2022-12-07T01:32:08;18.55;;;10.25;;
24373;SDS011;12498;50.880;12.096;2022-12-07T01:34:34;17.73;;;10.30;;
24373;SDS011;12498;50.880;12.096;2022-12-07T01:36:59;17.05;;;10.07;;
24373;SDS011;12498;50.880;12.096;2022-12-07T01:39:25;14.82;;;8.90;;
24373;SDS011;12498;50.880;12.096;2022-12-07T01:41:51;16.77;;;8.93;;
24373;SDS011;12498;50.880;12.096;2022-12-07T01:46:50;14.57;;;8.77;;
24373;SDS011;12498;50.880;12.096;2022-12-07T01:49:17;14.00;;;8.43;;
24373;SDS011;12498;50.880;12.096;2022-12-07T01:52:25;13.63;;;8.05;;
24373;SDS011;12498;50.880;12.096;2022-12-07T01:54:55;11.77;;;7.40;;
24373;SDS011;12498;50.880;12.096;2022-12-07T01:57:23;13.55;;;7.82;;
24373;SDS011;12498;50.880;12.096;2022-12-07T01:59:50;12.52;;;7.47;;
24373;SDS011;12498;50.880;12.096;2022-12-07T02:02:18;12.30;;;7.38;;
24373;SDS011;12498;50.880;12.096;2022-12-07T02:04:47;11.73;;;6.15;;
24373;SDS011;12498;50.880;12.096;2022-12-07T02:07:15;11.05;;;7.07;;
24373;SDS011;12498;50.880;12.096;2022-12-07T02:09:41;12.85;;;6.90;;
24373;SDS011;12498;50.880;12.096;2022-12-07T02:12:07;14.23;;;7.20;;
24373;SDS011;12498;50.880;12.096;2022-12-07T02:14:33;10.95;;;6.40;;
24373;SDS011;12498;50.880;12.096;2022-12-07T02:30:08;9.90;;;5.60;;
24373;SDS011;12498;50.880;12.096;2022-12-07T02:32:42;10.90;;;6.03;;
24373;SDS011;12498;50.880;12.096;2022-12-07T02:38:29;8.88;;;6.07;;
24373;SDS011;12498;50.880;12.096;2022-12-07T02:41:04;9.30;;;6.00;;
24373;SDS011;12498;50.880;12.096;2022-12-07T02:43:35;9.15;;;5.88;;
24373;SDS011;12498;50.880;12.096;2022-12-07T02:46:25;11.57;;;5.43;;
24373;SDS011;12498;50.880;12.096;2022-12-07T02:48:55;13.00;;;5.90;;
24373;SDS011;12498;50.880;12.096;2022-12-07T02:53:50;11.32;;;5.53;;
24373;SDS011;12498;50.880;12.096;2022-12-07T02:56:33;7.88;;;5.10;;
24373;SDS011;12498;50.880;12.096;2022-12-07T03:02:06;6.57;;;4.43;;
24373;SDS011;12498;50.880;12.096;2022-12-07T03:07:49;8.10;;;4.65;;
24373;SDS011;12498;50.880;12.096;2022-12-07T03:13:02;7.43;;;4.72;;
24373;SDS011;12498;50.880;12.096;2022-12-07T03:18:20;11.57;;;4.43;;
24373;SDS011;12498;50.880;12.096;2022-12-07T03:20:48;7.60;;;4.95;;
24373;SDS011;12498;50.880;12.096;2022-12-07T03:23:18;7.47;;;5.10;;
24373;SDS011;12498;50.880;12.096;2022-12-07T03:25:47;7.68;;;4.68;;
24373;SDS011;12498;50.880;12.096;2022-12-07T03:28:19;7.88;;;4.70;;
24373;SDS011;12498;50.880;12.096;2022-12-07T03:35:51;8.18;;;5.00;;
24373;SDS011;12498;50.880;12.096;2022-12-07T03:38:49;7.35;;;4.30;;
24373;SDS011;12498;50.880;12.096;2022-12-07T03:43:52;6.78;;;4.35;;
24373;SDS011;12498;50.880;12.096;2022-12-07T03:49:11;10.60;;;5.00;;
24373;SDS011;12498;50.880;12.096;2022-12-07T03:51:47;8.43;;;4.38;;
24373;SDS011;12498;50.880;12.096;2022-12-07T03:54:34;6.13;;;4.05;;
24373;SDS011;12498;50.880;12.096;2022-12-07T03:57:05;7.38;;;4.20;;
24373;SDS011;12498;50.880;12.096;2022-12-07T03:59:31;7.65;;;3.92;;
24373;SDS011;12498;50.880;12.096;2022-12-07T04:02:01;6.53;;;3.85;;
24373;SDS011;12498;50.880;12.096;2022-12-07T04:04:29;6.00;;;3.72;;
24373;SDS011;12498;50.880;12.096;2022-12-07T04:06:55;10.07;;;4.10;;
24373;SDS011;12498;50.880;12.096;2022-12-07T04:09:21;8.27;;;4.28;;
24373;SDS011;12498;50.880;12.096;2022-12-07T04:11:47;7.45;;;4.10;;
24373;SDS011;12498;50.880;12.096;2022-12-07T04:14:12;6.82;;;4.03;;
24373;SDS011;12498;50.880;12.096;2022-12-07T04:19:18;8.65;;;4.28;;
24373;SDS011;12498;50.880;12.096;2022-12-07T04:21:45;7.82;;;4.10;;
24373;SDS011;12498;50.880;12.096;2022-12-07T04:24:11;7.82;;;4.32;;
24373;SDS011;12498;50.880;12.096;2022-12-07T04:26:38;7.18;;;4.35;;
24373;SDS011;12498;50.880;12.096;2022-12-07T04:29:04;9.25;;;4.75;;
24373;SDS011;12498;50.880;12.096;2022-12-07T04:31:30;13.00;;;6.55;;
24373;SDS011;12498;50.880;12.096;2022-12-07T04:33:56;8.65;;;5.65;;
24373;SDS011;12498;50.880;12.096;2022-12-07T04:36:21;8.80;;;5.07;;
24373;SDS011;12498;50.880;12.096;2022-12-07T04:38:47;9.25;;;4.35;;
24373;SDS011;12498;50.880;12.096;2022-12-07T04:41:16;10.02;;;4.97;;
24373;SDS011;12498;50.880;12.096;2022-12-07T04:43:42;8.10;;;4.85;;
24373;SDS011;12498;50.880;12.096;2022-12-07T04:46:08;11.05;;;6.05;;
24373;SDS011;12498;50.880;12.096;2022-12-07T04:48:34;10.55;;;6.75;;
24373;SDS011;12498;50.880;12.096;2022-12-07T04:50:59;12.55;;;7.93;;
24373;SDS011;12498;50.880;12.096;2022-12-07T04:53:25;14.10;;;7.30;;
24373;SDS011;12498;50.880;12.096;2022-12-07T04:55:50;13.55;;;7.65;;
24373;SDS011;12498;50.880;12.096;2022-12-07T04:58:16;19.60;;;11.35;;
24373;SDS011;12498;50.880;12.096;2022-12-07T05:00:42;18.40;;;11.40;;
24373;SDS011;12498;50.880;12.096;2022-12-07T05:03:08;16.15;;;11.00;;
24373;SDS011;12498;50.880;12.096;2022-12-07T05:05:33;18.38;;;10.32;;
24373;SDS011;12498;50.880;12.096;2022-12-07T05:07:59;16.75;;;8.88;;
24373;SDS011;12498;50.880;12.096;2022-12-07T05:10:24;16.70;;;7.43;;
24373;SDS011;12498;50.880;12.096;2022-12-07T05:12:50;12.45;;;7.95;;
24373;SDS011;12498;50.880;12.096;2022-12-07T05:15:16;12.48;;;7.32;;
24373;SDS011;12498;50.880;12.096;2022-12-07T05:17:41;10.45;;;7.03;;
24373;SDS011;12498;50.880;12.096;2022-12-07T05:20:07;12.32;;;7.35;;
24373;SDS011;12498;50.880;12.096;2022-12-07T05:22:34;10.80;;;7.40;;
24373;SDS011;12498;50.880;12.096;2022-12-07T05:25:00;11.45;;;7.35;;
24373;SDS011;12498;50.880;12.096;2022-12-07T05:27:25;16.98;;;8.98;;
24373;SDS011;12498;50.880;12.096;2022-12-07T05:29:51;17.70;;;9.05;;
24373;SDS011;12498;50.880;12.096;2022-12-07T05:32:18;14.10;;;8.95;;
24373;SDS011;12498;50.880;12.096;2022-12-07T05:34:43;19.35;;;9.13;;
24373;SDS011;12498;50.880;12.096;2022-12-07T05:37:09;18.27;;;9.63;;
24373;SDS011;12498;50.880;12.096;2022-12-07T05:39:35;15.77;;;8.63;;
24373;SDS011;12498;50.880;12.096;2022-12-07T05:42:10;11.73;;;7.60;;
24373;SDS011;12498;50.880;12.096;2022-12-07T05:47:09;12.18;;;7.25;;
24373;SDS011;12498;50.880;12.096;2022-12-07T05:49:35;9.63;;;6.85;;
24373;SDS011;12498;50.880;12.096;2022-12-07T05:52:01;12.55;;;6.80;;
24373;SDS011;12498;50.880;12.096;2022-12-07T05:54:26;11.38;;;7.57;;
24373;SDS011;12498;50.880;12.096;2022-12-07T05:56:52;10.68;;;7.20;;
24373;SDS011;12498;50.880;12.096;2022-12-07T05:59:18;10.60;;;6.80;;
24373;SDS011;12498;50.880;12.096;2022-12-07T06:01:47;15.85;;;7.60;;
24373;SDS011;12498;50.880;12.096;2022-12-07T06:04:13;12.20;;;7.55;;
24373;SDS011;12498;50.880;12.096;2022-12-07T06:06:39;13.25;;;8.07;;
24373;SDS011;12498;50.880;12.096;2022-12-07T06:09:05;14.45;;;7.80;;
24373;SDS011;12498;50.880;12.096;2022-12-07T06:11:30;13.38;;;7.80;;
24373;SDS011;12498;50.880;12.096;2022-12-07T06:14:15;12.68;;;8.80;;
24373;SDS011;12498;50.880;12.096;2022-12-07T06:16:40;12.45;;;7.65;;
24373;SDS011;12498;50.880;12.096;2022-12-07T06:19:06;12.93;;;8.15;;
24373;SDS011;12498;50.880;12.096;2022-12-07T06:21:31;11.75;;;8.25;;
24373;SDS011;12498;50.880;12.096;2022-12-07T06:23:57;13.68;;;8.05;;
24373;SDS011;12498;50.880;12.096;2022-12-07T06:26:23;13.85;;;8.73;;
24373;SDS011;12498;50.880;12.096;2022-12-07T06:28:48;13.98;;;8.35;;
24373;SDS011;12498;50.880;12.096;2022-12-07T06:31:14;12.07;;;7.93;;
24373;SDS011;12498;50.880;12.096;2022-12-07T06:33:40;14.80;;;9.00;;
24373;SDS011;12498;50.880;12.096;2022-12-07T06:36:06;13.85;;;9.13;;
24373;SDS011;12498;50.880;12.096;2022-12-07T06:38:32;13.75;;;8.85;;
24373;SDS011;12498;50.880;12.096;2022-12-07T06:40:58;15.38;;;9.27;;
24373;SDS011;12498;50.880;12.096;2022-12-07T06:43:23;15.75;;;9.73;;
24373;SDS011;12498;50.880;12.096;2022-12-07T06:45:49;13.65;;;8.20;;
24373;SDS011;12498;50.880;12.096;2022-12-07T06:48:15;13.77;;;8.30;;
24373;SDS011;12498;50.880;12.096;2022-12-07T06:50:43;14.27;;;8.15;;
24373;SDS011;12498;50.880;12.096;2022-12-07T06:53:10;11.80;;;8.05;;
24373;SDS011;12498;50.880;12.096;2022-12-07T06:58:05;12.63;;;7.97;;
24373;SDS011;12498;50.880;12.096;2022-12-07T07:00:30;15.18;;;9.25;;
24373;SDS011;12498;50.880;12.096;2022-12-07T07:02:56;15.52;;;8.82;;
24373;SDS011;12498;50.880;12.096;2022-12-07T07:05:22;14.43;;;8.73;;
24373;SDS011;12498;50.880;12.096;2022-12-07T07:07:48;14.38;;;9.10;;
24373;SDS011;12498;50.880;12.096;2022-12-07T07:10:14;15.20;;;9.52;;
24373;SDS011;12498;50.880;12.096;2022-12-07T07:12:40;15.98;;;9.30;;
24373;SDS011;12498;50.880;12.096;2022-12-07T07:15:06;16.02;;;9.05;;
24373;SDS011;12498;50.880;12.096;2022-12-07T07:17:32;14.68;;;9.48;;
24373;SDS011;12498;50.880;12.096;2022-12-07T07:19:57;15.48;;;9.68;;
24373;SDS011;12498;50.880;12.096;2022-12-07T07:22:23;15.75;;;9.38;;
24373;SDS011;12498;50.880;12.096;2022-12-07T07:24:49;15.50;;;8.95;;
24373;SDS011;12498;50.880;12.096;2022-12-07T07:27:14;15.98;;;9.70;;
24373;SDS011;12498;50.880;12.096;2022-12-07T07:29:40;18.13;;;9.45;;
24373;SDS011;12498;50.880;12.096;2022-12-07T07:32:06;14.55;;;9.80;;
24373;SDS011;12498;50.880;12.096;2022-12-07T07:34:32;15.32;;;10.00;;
24373;SDS011;12498;50.880;12.096;2022-12-07T07:36:58;14.82;;;9.43;;
24373;SDS011;12498;50.880;12.096;2022-12-07T07:39:24;13.60;;;8.85;;
24373;SDS011;12498;50.880;12.096;2022-12-07T07:41:49;17.33;;;10.73;;
24373;SDS011;12498;50.880;12.096;2022-12-07T07:44:15;15.90;;;9.93;;
24373;SDS011;12498;50.880;12.096;2022-12-07T07:46:41;15.18;;;9.55;;
24373;SDS011;12498;50.880;12.096;2022-12-07T07:49:06;13.52;;;9.30;;
24373;SDS011;12498;50.880;12.096;2022-12-07T07:51:34;24.13;;;14.45;;
24373;SDS011;12498;50.880;12.096;2022-12-07T07:53:59;22.70;;;13.52;;
24373;SDS011;12498;50.880;12.096;2022-12-07T07:56:25;18.20;;;11.77;;
24373;SDS011;12498;50.880;12.096;2022-12-07T07:58:51;17.70;;;11.52;;
24373;SDS011;12498;50.880;12.096;2022-12-07T08:01:17;21.42;;;12.77;;
24373;SDS011;12498;50.880;12.096;2022-12-07T08:03:44;17.08;;;10.05;;
24373;SDS011;12498;50.880;12.096;2022-12-07T08:06:11;15.85;;;10.13;;
24373;SDS011;12498;50.880;12.096;2022-12-07T08:08:37;16.05;;;10.30;;
24373;SDS011;12498;50.880;12.096;2022-12-07T08:11:06;16.17;;;9.85;;
24373;SDS011;12498;50.880;12.096;2022-12-07T08:13:32;16.60;;;10.15;;
24373;SDS011;12498;50.880;12.096;2022-12-07T08:15:58;14.75;;;9.55;;
24373;SDS011;12498;50.880;12.096;2022-12-07T08:18:36;16.25;;;10.15;;
24373;SDS011;12498;50.880;12.096;2022-12-07T08:21:05;16.88;;;10.75;;
24373;SDS011;12498;50.880;12.096;2022-12-07T08:23:32;15.77;;;10.20;;
24373;SDS011;12498;50.880;12.096;2022-12-07T08:26:02;18.85;;;10.10;;
24373;SDS011;12498;50.880;12.096;2022-12-07T08:28:29;20.52;;;12.52;;
24373;SDS011;12498;50.880;12.096;2022-12-07T08:31:02;18.35;;;11.80;;
24373;SDS011;12498;50.880;12.096;2022-12-07T08:33:30;17.83;;;11.35;;
24373;SDS011;12498;50.880;12.096;2022-12-07T08:36:00;17.00;;;9.70;;
24373;SDS011;12498;50.880;12.096;2022-12-07T08:38:30;15.38;;;9.70;;
24373;SDS011;12498;50.880;12.096;2022-12-07T08:40:56;17.15;;;9.48;;
24373;SDS011;12498;50.880;12.096;2022-12-07T08:43:22;14.70;;;9.15;;
24373;SDS011;12498;50.880;12.096;2022-12-07T08:45:53;15.05;;;9.63;;
24373;SDS011;12498;50.880;12.096;2022-12-07T08:48:33;19.77;;;10.05;;
24373;SDS011;12498;50.880;12.096;2022-12-07T08:51:01;19.50;;;11.05;;
24373;SDS011;12498;50.880;12.096;2022-12-07T08:53:27;16.67;;;10.35;;
24373;SDS011;12498;50.880;12.096;2022-12-07T08:55:54;16.80;;;10.82;;
24373;SDS011;12498;50.880;12.096;2022-12-07T08:58:22;30.35;;;17.58;;
24373;SDS011;12498;50.880;12.096;2022-12-07T09:00:47;15.95;;;10.15;;
24373;SDS011;12498;50.880;12.096;2022-12-07T09:03:13;17.92;;;10.68;;
24373;SDS011;12498;50.880;12.096;2022-12-07T09:05:39;21.48;;;12.32;;
24373;SDS011;12498;50.880;12.096;2022-12-07T09:08:04;19.40;;;10.55;;
24373;SDS011;12498;50.880;12.096;2022-12-07T09:10:31;19.13;;;11.50;;
24373;SDS011;12498;50.880;12.096;2022-12-07T09:12:57;40.70;;;19.58;;
24373;SDS011;12498;50.880;12.096;2022-12-07T09:15:29;21.55;;;13.48;;
24373;SDS011;12498;50.880;12.096;2022-12-07T09:17:56;17.25;;;11.20;;
24373;SDS011;12498;50.880;12.096;2022-12-07T09:20:22;16.85;;;10.57;;
24373;SDS011;12498;50.880;12.096;2022-12-07T09:22:48;17.40;;;10.10;;
24373;SDS011;12498;50.880;12.096;2022-12-07T09:25:13;14.82;;;9.73;;
24373;SDS011;12498;50.880;12.096;2022-12-07T09:27:40;17.52;;;10.65;;
24373;SDS011;12498;50.880;12.096;2022-12-07T09:30:12;15.73;;;9.43;;
24373;SDS011;12498;50.880;12.096;2022-12-07T09:32:38;16.92;;;9.18;;
24373;SDS011;12498;50.880;12.096;2022-12-07T09:35:04;15.68;;;8.88;;
24373;SDS011;12498;50.880;12.096;2022-12-07T09:37:30;16.15;;;9.75;;
24373;SDS011;12498;50.880;12.096;2022-12-07T09:40:00;19.27;;;9.45;;
24373;SDS011;12498;50.880;12.096;2022-12-07T09:42:27;14.93;;;9.40;;
24373;SDS011;12498;50.880;12.096;2022-12-07T09:45:05;15.18;;;9.40;;
24373;SDS011;12498;50.880;12.096;2022-12-07T09:47:37;14.32;;;8.65;;
24373;SDS011;12498;50.880;12.096;2022-12-07T09:50:04;16.88;;;9.50;;
24373;SDS011;12498;50.880;12.096;2022-12-07T09:52:51;15.73;;;8.97;;
24373;SDS011;12498;50.880;12.096;2022-12-07T09:55:20;10.07;;;6.32;;
24373;SDS011;12498;50.880;12.096;2022-12-07T09:57:50;17.33;;;9.20;;
24373;SDS011;12498;50.880;12.096;2022-12-07T10:00:19;13.65;;;8.35;;
24373;SDS011;12498;50.880;12.096;2022-12-07T10:02:51;12.90;;;7.53;;
24373;SDS011;12498;50.880;12.096;2022-12-07T10:05:28;12.35;;;7.93;;
24373;SDS011;12498;50.880;12.096;2022-12-07T10:07:57;14.15;;;7.93;;
24373;SDS011;12498;50.880;12.096;2022-12-07T10:10:24;13.80;;;8.00;;
24373;SDS011;12498;50.880;12.096;2022-12-07T10:12:56;18.80;;;8.15;;
24373;SDS011;12498;50.880;12.096;2022-12-07T10:20:59;14.02;;;7.55;;
24373;SDS011;12498;50.880;12.096;2022-12-07T10:23:40;12.45;;;7.13;;
24373;SDS011;12498;50.880;12.096;2022-12-07T10:34:31;11.13;;;7.13;;
24373;SDS011;12498;50.880;12.096;2022-12-07T10:37:20;14.90;;;8.10;;
24373;SDS011;12498;50.880;12.096;2022-12-07T10:42:27;12.02;;;5.88;;
24373;SDS011;12498;50.880;12.096;2022-12-07T10:53:21;11.93;;;5.57;;
24373;SDS011;12498;50.880;12.096;2022-12-07T10:56:06;11.80;;;6.22;;
24373;SDS011;12498;50.880;12.096;2022-12-07T10:59:00;9.80;;;5.53;;
24373;SDS011;12498;50.880;12.096;2022-12-07T11:01:46;7.95;;;4.80;;
24373;SDS011;12498;50.880;12.096;2022-12-07T11:04:43;10.18;;;4.78;;
24373;SDS011;12498;50.880;12.096;2022-12-07T11:21:31;12.05;;;4.05;;
24373;SDS011;12498;50.880;12.096;2022-12-07T11:34:43;9.10;;;4.10;;
24373;SDS011;12498;50.880;12.096;2022-12-07T11:37:33;7.20;;;3.80;;
24373;SDS011;12498;50.880;12.096;2022-12-07T11:40:02;11.60;;;3.35;;
24373;SDS011;12498;50.880;12.096;2022-12-07T11:42:38;8.73;;;3.35;;
24373;SDS011;12498;50.880;12.096;2022-12-07T11:47:48;10.23;;;3.63;;
24373;SDS011;12498;50.880;12.096;2022-12-07T11:51:02;8.23;;;3.75;;
24373;SDS011;12498;50.880;12.096;2022-12-07T11:53:23;7.47;;;2.92;;
24373;SDS011;12498;50.880;12.096;2022-12-07T11:56:11;9.63;;;3.28;;
24373;SDS011;12498;50.880;12.096;2022-12-07T12:03:45;6.33;;;2.60;;
24373;SDS011;12498;50.880;12.096;2022-12-07T12:06:13;9.40;;;3.42;;
24373;SDS011;12498;50.880;12.096;2022-12-07T12:08:41;11.93;;;4.45;;
24373;SDS011;12498;50.880;12.096;2022-12-07T12:20:00;11.15;;;3.38;;
24373;SDS011;12498;50.880;12.096;2022-12-07T12:22:32;8.38;;;3.50;;
24373;SDS011;12498;50.880;12.096;2022-12-07T12:25:07;8.23;;;3.78;;
24373;SDS011;12498;50.880;12.096;2022-12-07T12:27:46;9.40;;;4.00;;
24373;SDS011;12498;50.880;12.096;2022-12-07T12:33:12;8.18;;;3.78;;
24373;SDS011;12498;50.880;12.096;2022-12-07T12:35:48;6.47;;;3.00;;
24373;SDS011;12498;50.880;12.096;2022-12-07T12:46:46;8.32;;;3.15;;
24373;SDS011;12498;50.880;12.096;2022-12-07T12:59:29;8.38;;;2.88;;
24373;SDS011;12498;50.880;12.096;2022-12-07T13:13:03;5.25;;;2.90;;
24373;SDS011;12498;50.880;12.096;2022-12-07T13:15:37;6.25;;;2.50;;
24373;SDS011;12498;50.880;12.096;2022-12-07T13:18:21;7.07;;;2.38;;
24373;SDS011;12498;50.880;12.096;2022-12-07T13:31:43;6.68;;;2.30;;
24373;SDS011;12498;50.880;12.096;2022-12-07T13:34:36;4.20;;;2.15;;
24373;SDS011;12498;50.880;12.096;2022-12-07T13:37:17;4.78;;;1.65;;
24373;SDS011;12498;50.880;12.096;2022-12-07T13:39:52;4.07;;;1.88;;
24373;SDS011;12498;50.880;12.096;2022-12-07T13:45:24;5.35;;;2.20;;
24373;SDS011;12498;50.880;12.096;2022-12-07T13:48:14;4.40;;;2.03;;
24373;SDS011;12498;50.880;12.096;2022-12-07T13:50:56;7.38;;;1.98;;
24373;SDS011;12498;50.880;12.096;2022-12-07T13:53:23;6.65;;;2.00;;
24373;SDS011;12498;50.880;12.096;2022-12-07T13:55:49;6.07;;;1.90;;
24373;SDS011;12498;50.880;12.096;2022-12-07T13:58:16;5.90;;;2.17;;
24373;SDS011;12498;50.880;12.096;2022-12-07T14:00:42;4.78;;;2.00;;
24373;SDS011;12498;50.880;12.096;2022-12-07T14:05:38;9.23;;;2.22;;
24373;SDS011;12498;50.880;12.096;2022-12-07T14:08:20;4.50;;;2.35;;
24373;SDS011;12498;50.880;12.096;2022-12-07T14:15:59;10.25;;;3.83;;
24373;SDS011;12498;50.880;12.096;2022-12-07T14:18:29;8.55;;;2.28;;
24373;SDS011;12498;50.880;12.096;2022-12-07T14:23:37;5.72;;;2.50;;
24373;SDS011;12498;50.880;12.096;2022-12-07T14:26:07;9.50;;;3.40;;
24373;SDS011;12498;50.880;12.096;2022-12-07T14:28:38;5.65;;;3.00;;
24373;SDS011;12498;50.880;12.096;2022-12-07T14:31:18;8.20;;;3.53;;
24373;SDS011;12498;50.880;12.096;2022-12-07T14:33:48;6.97;;;3.15;;
24373;SDS011;12498;50.880;12.096;2022-12-07T14:36:14;9.00;;;3.20;;
24373;SDS011;12498;50.880;12.096;2022-12-07T14:38:40;8.63;;;3.03;;
24373;SDS011;12498;50.880;12.096;2022-12-07T14:41:09;11.57;;;4.70;;
24373;SDS011;12498;50.880;12.096;2022-12-07T14:43:58;13.10;;;4.38;;
24373;SDS011;12498;50.880;12.096;2022-12-07T14:46:24;11.27;;;3.70;;
24373;SDS011;12498;50.880;12.096;2022-12-07T14:48:49;17.30;;;6.75;;
24373;SDS011;12498;50.880;12.096;2022-12-07T14:51:15;10.95;;;5.55;;
24373;SDS011;12498;50.880;12.096;2022-12-07T14:53:42;7.35;;;2.88;;
24373;SDS011;12498;50.880;12.096;2022-12-07T14:56:13;6.53;;;3.00;;
24373;SDS011;12498;50.880;12.096;2022-12-07T14:58:39;8.70;;;3.00;;
24373;SDS011;12498;50.880;12.096;2022-12-07T15:01:05;10.50;;;3.17;;
24373;SDS011;12498;50.880;12.096;2022-12-07T15:03:31;8.48;;;3.15;;
24373;SDS011;12498;50.880;12.096;2022-12-07T15:05:57;9.90;;;3.17;;
24373;SDS011;12498;50.880;12.096;2022-12-07T15:08:22;10.75;;;3.35;;
24373;SDS011;12498;50.880;12.096;2022-12-07T15:10:48;11.15;;;3.67;;
24373;SDS011;12498;50.880;12.096;2022-12-07T15:13:14;8.05;;;2.30;;
24373;SDS011;12498;50.880;12.096;2022-12-07T15:15:58;11.73;;;2.97;;
24373;SDS011;12498;50.880;12.096;2022-12-07T15:18:25;8.32;;;2.83;;
24373;SDS011;12498;50.880;12.096;2022-12-07T15:20:50;7.75;;;3.20;;
24373;SDS011;12498;50.880;12.096;2022-12-07T15:23:16;14.60;;;4.90;;
24373;SDS011;12498;50.880;12.096;2022-12-07T15:25:43;15.20;;;4.80;;
24373;SDS011;12498;50.880;12.096;2022-12-07T15:28:10;14.07;;;5.65;;
24373;SDS011;12498;50.880;12.096;2022-12-07T15:30:39;14.55;;;5.60;;
24373;SDS011;12498;50.880;12.096;2022-12-07T15:33:08;11.73;;;4.65;;
24373;SDS011;12498;50.880;12.096;2022-12-07T15:35:38;11.75;;;4.72;;
24373;SDS011;12498;50.880;12.096;2022-12-07T15:38:10;18.95;;;6.82;;
24373;SDS011;12498;50.880;12.096;2022-12-07T15:40:36;12.65;;;5.25;;
24373;SDS011;12498;50.880;12.096;2022-12-07T15:43:02;20.05;;;7.18;;
24373;SDS011;12498;50.880;12.096;2022-12-07T15:45:29;17.98;;;6.95;;
24373;SDS011;12498;50.880;12.096;2022-12-07T15:47:54;17.55;;;6.70;;
24373;SDS011;12498;50.880;12.096;2022-12-07T15:50:21;13.13;;;5.40;;
24373;SDS011;12498;50.880;12.096;2022-12-07T15:52:47;13.70;;;5.20;;
24373;SDS011;12498;50.880;12.096;2022-12-07T15:57:41;13.65;;;5.78;;
24373;SDS011;12498;50.880;12.096;2022-12-07T16:00:08;15.15;;;6.07;;
24373;SDS011;12498;50.880;12.096;2022-12-07T16:02:36;9.30;;;4.75;;
24373;SDS011;12498;50.880;12.096;2022-12-07T16:05:02;10.18;;;4.60;;
24373;SDS011;12498;50.880;12.096;2022-12-07T16:07:28;11.07;;;4.72;;
24373;SDS011;12498;50.880;12.096;2022-12-07T16:09:53;10.93;;;4.63;;
24373;SDS011;12498;50.880;12.096;2022-12-07T16:12:19;11.63;;;5.60;;
24373;SDS011;12498;50.880;12.096;2022-12-07T16:14:45;13.88;;;6.13;;
24373;SDS011;12498;50.880;12.096;2022-12-07T16:17:11;14.40;;;6.40;;
24373;SDS011;12498;50.880;12.096;2022-12-07T16:19:37;12.20;;;4.88;;
24373;SDS011;12498;50.880;12.096;2022-12-07T16:22:03;10.25;;;4.40;;
24373;SDS011;12498;50.880;12.096;2022-12-07T16:24:29;11.63;;;5.00;;
24373;SDS011;12498;50.880;12.096;2022-12-07T16:26:58;12.95;;;5.70;;
24373;SDS011;12498;50.880;12.096;2022-12-07T16:29:24;10.98;;;4.60;;
24373;SDS011;12498;50.880;12.096;2022-12-07T16:31:50;7.85;;;4.05;;
24373;SDS011;12498;50.880;12.096;2022-12-07T16:34:16;10.15;;;4.25;;
24373;SDS011;12498;50.880;12.096;2022-12-07T16:36:42;6.97;;;3.40;;
24373;SDS011;12498;50.880;12.096;2022-12-07T16:39:08;11.40;;;4.63;;
24373;SDS011;12498;50.880;12.096;2022-12-07T16:41:34;14.30;;;5.60;;
24373;SDS011;12498;50.880;12.096;2022-12-07T16:44:01;13.43;;;5.47;;
24373;SDS011;12498;50.880;12.096;2022-12-07T16:46:32;12.73;;;5.38;;
24373;SDS011;12498;50.880;12.096;2022-12-07T16:49:00;16.90;;;8.05;;
24373;SDS011;12498;50.880;12.096;2022-12-07T16:51:26;14.40;;;6.07;;
24373;SDS011;12498;50.880;12.096;2022-12-07T16:53:52;10.80;;;4.32;;
24373;SDS011;12498;50.880;12.096;2022-12-07T16:56:18;9.77;;;4.35;;
24373;SDS011;12498;50.880;12.096;2022-12-07T16:58:44;12.32;;;4.90;;
24373;SDS011;12498;50.880;12.096;2022-12-07T17:01:12;6.03;;;4.05;;
24373;SDS011;12498;50.880;12.096;2022-12-07T17:03:40;12.07;;;5.32;;
24373;SDS011;12498;50.880;12.096;2022-12-07T17:06:22;8.82;;;4.10;;
24373;SDS011;12498;50.880;12.096;2022-12-07T17:08:50;9.82;;;5.47;;
24373;SDS011;12498;50.880;12.096;2022-12-07T17:11:20;11.68;;;5.43;;
24373;SDS011;12498;50.880;12.096;2022-12-07T17:13:50;10.60;;;4.32;;
24373;SDS011;12498;50.880;12.096;2022-12-07T17:16:35;10.02;;;4.13;;
24373;SDS011;12498;50.880;12.096;2022-12-07T17:19:04;10.50;;;4.43;;
24373;SDS011;12498;50.880;12.096;2022-12-07T17:21:33;9.30;;;4.25;;
24373;SDS011;12498;50.880;12.096;2022-12-07T17:24:00;10.15;;;4.18;;
24373;SDS011;12498;50.880;12.096;2022-12-07T17:26:27;11.35;;;4.70;;
24373;SDS011;12498;50.880;12.096;2022-12-07T17:28:53;8.77;;;4.72;;
24373;SDS011;12498;50.880;12.096;2022-12-07T17:31:20;10.82;;;4.88;;
24373;SDS011;12498;50.880;12.096;2022-12-07T17:33:47;9.05;;;4.60;;